createdAt,value
2018-04-10T00:00:29.398Z,8.83
2018-04-10T00:02:57.452Z,9.07
2018-04-10T00:05:25.501Z,9.17
2018-04-10T00:07:54.312Z,9.33
2018-04-10T00:10:22.355Z,11.00
2018-04-10T00:12:50.407Z,8.23
2018-04-10T00:15:18.451Z,7.97
2018-04-10T00:17:47.356Z,8.03
2018-04-10T00:20:16.154Z,9.17
2018-04-10T00:22:44.970Z,13.17
2018-04-10T00:25:13.773Z,8.37
2018-04-10T00:27:42.582Z,11.60
2018-04-10T00:30:10.619Z,8.17
2018-04-10T00:32:38.658Z,9.47
2018-04-10T00:35:06.703Z,11.50
2018-04-10T00:37:34.754Z,9.57
2018-04-10T00:40:02.798Z,10.13
2018-04-10T00:42:30.834Z,8.90
2018-04-10T00:44:58.893Z,9.63
2018-04-10T00:47:26.935Z,9.47
2018-04-10T00:49:55.750Z,6.50
2018-04-10T00:52:24.545Z,8.10
2018-04-10T00:54:53.358Z,7.30
2018-04-10T00:57:21.390Z,8.43
2018-04-10T00:59:49.438Z,9.30
2018-04-10T01:02:17.478Z,8.20
2018-04-10T01:04:45.522Z,8.47
2018-04-10T01:07:13.562Z,8.80
2018-04-10T01:09:42.376Z,9.90
2018-04-10T01:12:11.185Z,6.17
2018-04-10T01:14:39.230Z,11.67
2018-04-10T01:17:07.267Z,9.30
2018-04-10T01:19:35.306Z,7.90
2018-04-10T01:22:03.350Z,9.70
2018-04-10T01:24:31.390Z,6.47
2018-04-10T01:27:00.202Z,10.83
2018-04-10T01:29:28.507Z,9.80
2018-04-10T01:31:56.541Z,11.97
2018-04-10T01:34:24.584Z,7.20
2018-04-10T01:36:52.618Z,9.33
2018-04-10T01:39:20.650Z,9.67
2018-04-10T01:41:48.683Z,9.23
2018-04-10T01:44:16.723Z,7.93
2018-04-10T01:46:44.774Z,10.03
2018-04-10T01:49:13.591Z,9.10
2018-04-10T01:51:41.670Z,7.77
2018-04-10T01:54:09.757Z,9.63
2018-04-10T01:56:37.794Z,13.43
2018-04-10T01:59:05.843Z,12.60
2018-04-10T02:01:33.882Z,9.03
2018-04-10T02:04:02.694Z,8.27
2018-04-10T02:06:31.520Z,11.70
2018-04-10T02:08:59.606Z,8.80
2018-04-10T02:17:44.340Z,8.07
2018-04-10T02:20:36.234Z,6.47
2018-04-10T02:23:04.277Z,8.50
2018-04-10T02:25:32.338Z,8.70
2018-04-10T02:28:01.156Z,8.47
2018-04-10T02:30:29.954Z,11.57
2018-04-10T02:32:58.788Z,12.80
2018-04-10T02:35:26.811Z,8.17
2018-04-10T02:37:54.841Z,11.77
2018-04-10T02:40:22.898Z,11.43
2018-04-10T02:42:51.698Z,8.47
2018-04-10T02:45:20.507Z,13.00
2018-04-10T02:47:49.317Z,11.20
2018-04-10T02:50:17.362Z,8.17
2018-04-10T02:52:45.433Z,10.93
2018-04-10T02:55:13.487Z,11.03
2018-04-10T02:57:41.566Z,10.60
2018-04-10T03:00:09.618Z,10.73
2018-04-10T03:02:37.647Z,10.60
2018-04-10T03:05:05.715Z,11.63
2018-04-10T03:07:33.758Z,9.60
2018-04-10T03:10:01.802Z,12.50
2018-04-10T03:12:29.848Z,11.27
2018-04-10T03:14:58.646Z,9.93
2018-04-10T03:17:27.466Z,10.07
2018-04-10T03:19:55.518Z,7.77
2018-04-10T03:22:23.570Z,9.93
2018-04-10T03:24:51.602Z,9.63
2018-04-10T03:27:20.414Z,11.47
2018-04-10T03:29:49.227Z,9.00
2018-04-10T03:32:17.259Z,8.63
2018-04-10T03:34:45.319Z,13.63
2018-04-10T03:37:13.364Z,11.23
2018-04-10T03:39:42.163Z,10.23
2018-04-10T03:42:10.967Z,11.77
2018-04-10T03:44:39.786Z,9.73
2018-04-10T03:47:07.823Z,10.03
2018-04-10T03:49:36.282Z,11.30
2018-04-10T03:52:04.318Z,10.00
2018-04-10T03:54:32.350Z,8.57
2018-04-10T03:57:00.414Z,13.13
2018-04-10T03:59:28.507Z,7.27
2018-04-10T04:01:56.558Z,7.20
2018-04-10T04:04:24.605Z,11.27
2018-04-10T04:06:52.663Z,13.40
2018-04-10T04:09:20.722Z,9.00
2018-04-10T04:11:49.531Z,11.03
2018-04-10T04:14:18.361Z,13.33
2018-04-10T04:17:04.082Z,11.93
2018-04-10T04:19:49.762Z,13.63
2018-04-10T04:22:26.842Z,10.37
2018-04-10T04:24:54.903Z,10.03
2018-04-10T04:27:22.941Z,11.77
2018-04-10T04:29:51.015Z,10.67
2018-04-10T04:32:19.055Z,8.40
2018-04-10T04:34:47.863Z,8.80
2018-04-10T04:37:16.698Z,8.60
2018-04-10T04:39:44.736Z,8.17
2018-04-10T04:42:12.774Z,13.97
2018-04-10T04:44:40.830Z,8.90
2018-04-10T04:47:08.867Z,8.27
2018-04-10T04:49:36.918Z,12.17
2018-04-10T04:52:04.967Z,10.37
2018-04-10T04:54:33.794Z,9.80
2018-04-10T04:57:01.826Z,7.83
2018-04-10T04:59:29.876Z,10.70
2018-04-10T05:01:57.934Z,11.07
2018-04-10T05:04:26.026Z,8.93
2018-04-10T05:06:54.083Z,7.87
2018-04-10T05:09:22.894Z,7.63
2018-04-10T05:11:51.727Z,10.13
2018-04-10T05:14:19.770Z,11.87
2018-04-10T05:16:47.808Z,9.93
2018-04-10T05:19:15.875Z,8.17
2018-04-10T05:21:43.908Z,9.60
2018-04-10T05:24:11.942Z,9.77
2018-04-10T05:26:40.011Z,8.23
2018-04-10T05:29:08.823Z,10.20
2018-04-10T05:31:36.863Z,9.23
2018-04-10T05:34:04.919Z,11.63
2018-04-10T05:36:32.958Z,11.00
2018-04-10T05:39:01.782Z,12.80
2018-04-10T05:41:29.814Z,8.77
2018-04-10T05:43:57.868Z,12.33
2018-04-10T05:46:25.906Z,7.27
2018-04-10T05:48:54.718Z,7.73
2018-04-10T05:51:23.535Z,7.97
2018-04-10T05:53:51.591Z,9.40
2018-04-10T05:56:19.626Z,9.70
2018-04-10T05:58:47.679Z,9.50
2018-04-10T06:01:15.718Z,9.77
2018-04-10T06:03:43.785Z,10.50
2018-04-10T06:06:11.826Z,10.60
2018-04-10T06:08:40.630Z,9.20
2018-04-10T06:11:09.464Z,12.13
2018-04-10T06:13:37.500Z,8.90
2018-04-10T06:16:06.320Z,8.80
2018-04-10T06:18:34.379Z,8.27
2018-04-10T06:21:02.415Z,9.40
2018-04-10T06:23:30.463Z,10.10
2018-04-10T06:25:59.287Z,10.83
2018-04-10T06:28:27.339Z,11.37
2018-04-10T06:30:55.375Z,10.67
2018-04-10T06:33:23.426Z,11.93
2018-04-10T06:35:51.474Z,11.47
2018-04-10T06:38:19.523Z,9.47
2018-04-10T06:40:47.562Z,8.30
2018-04-10T06:43:15.607Z,7.90
2018-04-10T06:45:43.646Z,23.03
2018-04-10T06:48:12.467Z,9.17
2018-04-10T06:50:40.511Z,10.40
2018-04-10T06:53:08.635Z,10.40
2018-04-10T06:55:36.674Z,9.27
2018-04-10T06:58:04.740Z,10.83
2018-04-10T07:00:32.779Z,15.20
2018-04-10T07:03:00.823Z,27.00
2018-04-10T07:05:28.882Z,24.27
2018-04-10T07:07:56.972Z,19.20
2018-04-10T07:10:25.752Z,17.33
2018-04-10T07:12:53.789Z,19.30
2018-04-10T07:15:21.842Z,16.20
2018-04-10T07:17:49.882Z,23.60
2018-04-10T07:20:17.938Z,13.50
2018-04-10T07:22:45.995Z,13.73
2018-04-10T07:25:14.067Z,16.20
2018-04-10T07:27:42.117Z,14.17
2018-04-10T07:30:10.919Z,13.17
2018-04-10T07:32:39.739Z,14.13
2018-04-10T07:35:07.779Z,16.87
2018-04-10T07:37:35.992Z,14.57
2018-04-10T07:40:04.794Z,10.63
2018-04-10T07:42:32.850Z,14.90
2018-04-10T07:45:00.893Z,17.57
2018-04-10T07:47:28.955Z,15.53
2018-04-10T07:49:56.999Z,14.37
2018-04-10T07:52:25.127Z,15.93
2018-04-10T07:54:53.179Z,12.33
2018-04-10T07:57:21.223Z,12.93
2018-04-10T07:59:49.282Z,12.17
2018-04-10T08:02:17.326Z,11.17
2018-04-10T08:04:45.366Z,12.20
2018-04-10T08:07:13.418Z,12.43
2018-04-10T08:09:42.242Z,13.17
2018-04-10T08:12:10.279Z,8.17
2018-04-10T08:14:38.338Z,12.03
2018-04-10T08:17:06.378Z,13.13
2018-04-10T08:19:34.438Z,14.83
2018-04-10T08:22:03.246Z,15.33
2018-04-10T08:24:32.067Z,10.70
2018-04-10T08:27:00.122Z,17.03
2018-04-10T08:29:28.164Z,14.00
2018-04-10T08:31:56.223Z,14.57
2018-04-10T08:34:24.264Z,12.27
2018-04-10T08:36:52.397Z,12.67
2018-04-10T08:39:20.478Z,12.77
2018-04-10T08:41:48.520Z,12.73
2018-04-10T08:44:16.587Z,14.83
2018-04-10T08:46:44.681Z,12.67
2018-04-10T08:49:12.717Z,16.40
2018-04-10T08:51:40.758Z,11.83
2018-04-10T08:54:08.799Z,11.93
2018-04-10T08:56:36.867Z,12.73
2018-04-10T08:59:05.891Z,17.83
2018-04-10T09:01:33.934Z,15.27
2018-04-10T09:04:02.759Z,10.17
2018-04-10T09:06:30.815Z,17.53
2018-04-10T09:08:58.855Z,11.60
2018-04-10T09:11:26.921Z,13.20
2018-04-10T09:13:54.969Z,15.30
2018-04-10T09:16:23.011Z,14.50
2018-04-10T09:18:51.067Z,9.93
2018-04-10T09:21:19.114Z,14.07
2018-04-10T09:23:47.216Z,16.90
2018-04-10T09:26:16.014Z,12.60
2018-04-10T09:28:44.836Z,12.47
2018-04-10T09:31:12.875Z,10.63
2018-04-10T09:33:41.031Z,13.60
2018-04-10T09:36:09.070Z,15.40
2018-04-10T09:38:37.874Z,16.07
2018-04-10T09:41:06.695Z,11.20
2018-04-10T09:43:34.761Z,12.40
2018-04-10T09:46:02.795Z,13.70
2018-04-10T09:48:30.843Z,14.43
2018-04-10T09:50:59.664Z,11.70
2018-04-10T09:53:27.726Z,11.87
2018-04-10T09:55:56.631Z,11.93
2018-04-10T09:58:25.444Z,13.20
2018-04-10T10:00:53.498Z,13.57
2018-04-10T10:03:21.546Z,12.40
2018-04-10T10:05:49.601Z,14.47
2018-04-10T10:08:17.691Z,22.67
2018-04-10T10:10:45.778Z,13.57
2018-04-10T10:13:13.838Z,12.63
2018-04-10T10:15:42.659Z,14.57
2018-04-10T10:18:10.719Z,18.70
2018-04-10T10:20:39.547Z,15.13
2018-04-10T10:23:07.618Z,14.73
2018-04-10T10:25:35.718Z,17.53
2018-04-10T10:28:03.769Z,15.57
2018-04-10T10:30:31.830Z,13.87
2018-04-10T10:32:59.898Z,15.93
2018-04-10T10:35:27.934Z,15.63
2018-04-10T10:37:56.755Z,18.77
2018-04-10T10:40:24.815Z,15.33
2018-04-10T10:42:53.631Z,15.70
2018-04-10T10:45:21.687Z,14.97
2018-04-10T10:47:49.727Z,12.67
2018-04-10T10:50:17.787Z,15.50
2018-04-10T10:52:45.861Z,14.40
2018-04-10T10:55:13.910Z,12.17
2018-04-10T10:57:41.950Z,11.30
2018-04-10T11:00:10.006Z,14.57
2018-04-10T11:02:38.060Z,10.87
2018-04-10T11:05:06.104Z,11.47
2018-04-10T11:07:34.163Z,10.87
2018-04-10T11:10:02.974Z,12.80
2018-04-10T11:12:31.792Z,9.10
2018-04-10T11:14:59.830Z,12.27
2018-04-10T11:17:29.399Z,9.57
2018-04-10T11:19:57.475Z,10.57
2018-04-10T11:22:25.552Z,12.75
2018-04-10T11:24:53.596Z,9.27
2018-04-10T11:27:21.638Z,10.50
2018-04-10T11:29:49.714Z,12.43
2018-04-10T11:32:17.763Z,12.68
2018-04-10T11:34:45.811Z,8.77
2018-04-10T11:37:13.856Z,9.48
2018-04-10T11:39:41.924Z,11.45
2018-04-10T11:42:10.734Z,8.98
2018-04-10T11:44:39.539Z,7.10
2018-04-10T11:47:08.364Z,7.87
2018-04-10T11:49:36.418Z,10.00
2018-04-10T11:52:05.226Z,9.97
2018-04-10T11:54:34.042Z,8.17
2018-04-10T11:57:02.086Z,8.27
2018-04-10T11:59:30.123Z,9.83
2018-04-10T12:01:58.181Z,8.77
2018-04-10T12:04:27.004Z,11.30
2018-04-10T12:06:55.061Z,10.23
2018-04-10T12:09:23.897Z,12.50
2018-04-10T12:11:51.942Z,10.90
2018-04-10T12:14:20.059Z,12.63
2018-04-10T12:16:48.115Z,18.17
2018-04-10T12:19:16.939Z,11.90
2018-04-10T12:21:44.974Z,12.67
2018-04-10T12:24:13.039Z,11.33
2018-04-10T12:26:41.078Z,11.00
2018-04-10T12:29:09.906Z,10.27
2018-04-10T12:31:37.952Z,10.07
2018-04-10T12:34:06.006Z,11.03
2018-04-10T12:36:34.095Z,12.13
2018-04-10T12:39:02.115Z,8.83
2018-04-10T12:41:30.940Z,13.20
2018-04-10T12:43:58.983Z,12.30
2018-04-10T12:46:27.026Z,10.73
2018-04-10T12:48:55.078Z,8.57
2018-04-10T12:51:23.891Z,9.97
2018-04-10T12:53:51.951Z,14.63
2018-04-10T12:56:20.778Z,13.77
2018-04-10T12:58:48.816Z,11.70
2018-04-10T13:01:16.878Z,11.20
2018-04-10T13:03:44.918Z,11.40
2018-04-10T13:06:13.748Z,10.40
2018-04-10T13:08:41.783Z,9.23
2018-04-10T13:11:09.851Z,6.87
2018-04-10T13:13:37.906Z,9.52
2018-04-10T13:16:05.938Z,12.07
2018-04-10T13:18:34.738Z,8.63
2018-04-10T13:21:02.795Z,7.80
2018-04-10T13:23:30.847Z,7.50
2018-04-10T13:25:58.895Z,13.35
2018-04-10T13:28:27.721Z,7.75
2018-04-10T13:30:56.518Z,9.80
2018-04-10T13:33:25.342Z,10.13
2018-04-10T13:35:53.378Z,8.40
2018-04-10T13:38:21.430Z,6.90
2018-04-10T13:40:49.475Z,7.45
2018-04-10T13:43:17.539Z,6.53
2018-04-10T13:45:46.347Z,7.28
2018-04-10T13:48:15.155Z,7.60
2018-04-10T13:50:43.976Z,7.18
2018-04-10T13:53:12.010Z,7.90
2018-04-10T13:55:40.071Z,9.17
2018-04-10T13:58:08.124Z,8.00
2018-04-10T14:00:36.161Z,7.60
2018-04-10T14:03:04.242Z,5.10
2018-04-10T14:05:32.278Z,7.07
2018-04-10T14:08:00.310Z,5.60
2018-04-10T14:10:28.369Z,5.63
2018-04-10T14:12:56.414Z,11.63
2018-04-10T14:15:25.239Z,5.53
2018-04-10T14:17:53.281Z,7.07
2018-04-10T14:20:21.369Z,6.37
2018-04-10T14:22:49.426Z,5.73
2018-04-10T14:25:17.466Z,6.20
2018-04-10T14:27:45.522Z,6.47
2018-04-10T14:30:13.558Z,7.60
2018-04-10T14:32:41.622Z,5.70
2018-04-10T14:35:09.664Z,4.57
2018-04-10T14:37:37.726Z,10.97
2018-04-10T14:40:05.764Z,6.47
2018-04-10T14:42:34.566Z,8.83
2018-04-10T14:45:03.383Z,7.10
2018-04-10T14:47:31.417Z,4.60
2018-04-10T14:49:59.467Z,8.73
2018-04-10T14:52:27.507Z,5.10
2018-04-10T14:54:56.326Z,6.23
2018-04-10T14:57:25.135Z,7.33
2018-04-10T14:59:53.245Z,9.53
2018-04-10T15:02:22.008Z,3.90
2018-04-10T15:04:50.811Z,6.17
2018-04-10T15:07:19.735Z,5.83
2018-04-10T15:09:47.771Z,6.53
2018-04-10T15:12:15.823Z,4.33
2018-04-10T15:14:43.870Z,5.60
2018-04-10T15:17:12.682Z,4.43
2018-04-10T15:19:40.726Z,5.63
2018-04-10T15:22:08.775Z,7.83
2018-04-10T15:24:36.825Z,4.37
2018-04-10T15:27:05.632Z,8.07
2018-04-10T15:29:33.681Z,8.63
2018-04-10T15:32:01.791Z,7.90
2018-04-10T15:34:29.763Z,7.13
2018-04-10T15:36:58.584Z,7.37
2018-04-10T15:39:27.379Z,5.20
2018-04-10T15:41:56.194Z,9.10
2018-04-10T15:44:24.231Z,7.53
2018-04-10T15:46:52.283Z,4.53
2018-04-10T15:49:20.316Z,6.40
2018-04-10T15:51:48.367Z,4.27
2018-04-10T15:54:16.412Z,5.07
2018-04-10T15:56:45.219Z,6.40
2018-04-10T15:59:13.263Z,6.33
2018-04-10T16:01:41.306Z,9.23
2018-04-10T16:04:09.357Z,4.47
2018-04-10T16:06:38.171Z,5.33
2018-04-10T16:09:06.966Z,6.07
2018-04-10T16:11:35.778Z,5.20
2018-04-10T16:14:03.819Z,5.43
2018-04-10T16:16:31.864Z,8.57
2018-04-10T16:18:59.903Z,5.93
2018-04-10T16:21:27.950Z,5.43
2018-04-10T16:23:55.985Z,5.80
2018-04-10T16:26:24.798Z,6.63
2018-04-10T16:28:53.600Z,6.03
2018-04-10T16:31:21.633Z,6.83
2018-04-10T16:33:49.686Z,6.47
2018-04-10T16:36:17.725Z,6.93
2018-04-10T16:38:45.779Z,5.03
2018-04-10T16:41:13.819Z,4.57
2018-04-10T16:43:41.867Z,6.53
2018-04-10T16:46:09.910Z,5.57
2018-04-10T16:48:37.954Z,5.50
2018-04-10T16:51:06.763Z,9.90
2018-04-10T16:53:35.582Z,6.77
2018-04-10T16:56:03.623Z,4.27
2018-04-10T16:58:31.670Z,7.50
2018-04-10T17:00:59.711Z,4.90
2018-04-10T17:03:28.523Z,2.83
2018-04-10T17:05:57.390Z,7.10
2018-04-10T17:08:25.546Z,2.97
2018-04-10T17:10:53.582Z,5.43
2018-04-10T17:13:22.431Z,7.20
2018-04-10T17:15:50.483Z,9.63
2018-04-10T17:18:19.287Z,3.87
2018-04-10T17:20:47.456Z,3.73
2018-04-10T17:23:15.575Z,6.00
2018-04-10T17:25:43.651Z,7.43
2018-04-10T17:28:11.707Z,4.23
2018-04-10T17:30:39.747Z,5.70
2018-04-10T17:33:07.806Z,5.10
2018-04-10T17:35:35.847Z,5.60
2018-04-10T17:38:03.907Z,2.30
2018-04-10T17:43:11.726Z,3.13
2018-04-10T17:45:39.799Z,8.73
2018-04-10T17:48:07.900Z,6.40
2018-04-10T17:50:35.942Z,6.53
2018-04-10T17:53:04.009Z,6.20
2018-04-10T17:55:32.163Z,4.67
2018-04-10T17:58:00.202Z,6.50
2018-04-10T18:00:29.027Z,9.33
2018-04-10T18:02:57.066Z,7.90
2018-04-10T18:05:25.110Z,6.90
2018-04-10T18:07:53.150Z,3.00
2018-04-10T18:10:22.051Z,3.53
2018-04-10T18:12:50.078Z,4.13
2018-04-10T18:15:18.126Z,4.03
2018-04-10T18:17:47.086Z,5.07
2018-04-10T18:20:15.130Z,4.50
2018-04-10T18:22:43.173Z,2.77
2018-04-10T18:25:11.207Z,3.13
2018-04-10T18:27:39.257Z,2.50
2018-04-10T18:30:07.308Z,2.73
2018-04-10T18:32:35.343Z,2.37
2018-04-10T18:35:04.358Z,4.27
2018-04-10T18:37:32.426Z,2.47
2018-04-10T18:40:01.242Z,3.23
2018-04-10T18:42:30.054Z,2.43
2018-04-10T18:44:58.102Z,1.20
2018-04-10T18:47:26.138Z,2.27
2018-04-10T18:49:54.183Z,5.60
2018-04-10T18:52:23.029Z,5.13
2018-04-10T18:54:51.083Z,3.83
2018-04-10T18:57:19.172Z,3.13
2018-04-10T18:59:48.070Z,1.60
2018-04-10T19:02:16.903Z,7.73
2018-04-10T19:04:45.016Z,2.60
2018-04-10T19:07:13.059Z,3.60
2018-04-10T19:09:41.111Z,2.50
2018-04-10T19:12:09.975Z,3.80
2018-04-10T19:14:38.014Z,2.00
2018-04-10T19:17:06.823Z,2.27
2018-04-10T19:19:34.863Z,2.57
2018-04-10T19:22:02.911Z,1.27
2018-04-10T19:24:30.959Z,3.03
2018-04-10T19:26:59.775Z,1.37
2018-04-10T19:29:28.601Z,1.30
2018-04-10T19:31:56.643Z,3.30
2018-04-10T19:34:25.446Z,3.00
2018-04-10T19:36:54.267Z,7.23
2018-04-10T19:39:22.356Z,2.40
2018-04-10T19:41:50.449Z,2.10
2018-04-10T19:44:18.526Z,4.27
2018-04-10T19:46:47.322Z,1.73
2018-04-10T19:49:15.415Z,2.77
2018-04-10T19:51:43.467Z,3.07
2018-04-10T19:54:11.503Z,5.30
2018-04-10T19:56:39.550Z,3.17
2018-04-10T19:59:08.374Z,1.47
2018-04-10T20:01:36.423Z,4.17
2018-04-10T20:04:04.468Z,1.20
2018-04-10T20:06:32.523Z,2.73
2018-04-10T20:09:00.566Z,1.57
2018-04-10T20:11:28.599Z,2.03
2018-04-10T20:13:56.651Z,1.60
2018-04-10T20:16:25.455Z,4.37
2018-04-10T20:18:54.283Z,3.63
2018-04-10T20:21:23.070Z,3.57
2018-04-10T20:23:51.981Z,3.40
2018-04-10T20:26:20.015Z,5.40
2018-04-10T20:28:48.068Z,2.40
2018-04-10T20:31:16.143Z,2.27
2018-04-10T20:33:44.197Z,2.70
2018-04-10T20:36:13.004Z,3.00
2018-04-10T20:38:41.814Z,3.20
2018-04-10T20:41:10.634Z,2.83
2018-04-10T20:43:38.714Z,2.27
2018-04-10T20:46:06.757Z,1.17
2018-04-10T20:48:34.802Z,4.43
2018-04-10T20:51:02.843Z,3.53
2018-04-10T20:53:31.765Z,2.50
2018-04-10T20:55:59.810Z,1.37
2018-04-10T20:58:27.859Z,2.53
2018-04-10T21:00:55.903Z,1.37
2018-04-10T21:03:24.725Z,3.93
2018-04-10T21:05:52.758Z,3.03
2018-04-10T21:08:20.818Z,1.83
2018-04-10T21:10:48.846Z,1.10
2018-04-10T21:13:16.962Z,3.17
2018-04-10T21:15:45.007Z,2.33
2018-04-10T21:18:13.043Z,1.23
2018-04-10T21:20:41.090Z,2.17
2018-04-10T21:23:09.902Z,1.53
2018-04-10T21:25:38.714Z,1.90
2018-04-10T21:28:06.755Z,1.50
2018-04-10T21:30:34.891Z,3.20
2018-04-10T21:33:02.939Z,1.30
2018-04-10T21:35:32.600Z,2.57
2018-04-10T21:38:00.646Z,1.87
2018-04-10T21:40:28.691Z,2.30
2018-04-10T21:43:02.460Z,1.93
2018-04-10T21:45:31.391Z,1.87
2018-04-10T21:47:59.438Z,1.53
2018-04-10T21:50:27.474Z,1.93
2018-04-10T21:52:55.534Z,1.50
2018-04-10T21:55:23.578Z,4.57
2018-04-10T21:57:51.622Z,1.93
2018-04-10T22:00:19.678Z,2.40
2018-04-10T22:02:48.475Z,3.30
2018-04-10T22:05:17.287Z,3.33
2018-04-10T22:07:45.326Z,4.57
2018-04-10T22:10:13.375Z,3.60
2018-04-10T22:12:41.414Z,4.90
2018-04-10T22:15:09.466Z,5.27
2018-04-10T22:17:37.499Z,4.97
2018-04-10T22:20:06.314Z,3.27
2018-04-10T22:22:35.115Z,3.23
2018-04-10T22:25:03.155Z,5.63
2018-04-10T22:27:31.197Z,7.70
2018-04-10T22:29:59.243Z,6.40
2018-04-10T22:32:28.047Z,10.07
2018-04-10T22:34:56.819Z,8.60
2018-04-10T22:37:25.638Z,10.47
2018-04-10T22:39:53.679Z,8.80
2018-04-10T22:42:21.736Z,11.27
2018-04-10T22:44:49.779Z,11.53
2018-04-10T22:47:18.587Z,12.30
2018-04-10T22:49:47.392Z,12.60
2018-04-10T22:52:16.219Z,12.80
2018-04-10T22:54:44.274Z,11.77
2018-04-10T22:57:13.078Z,13.83
2018-04-10T22:59:41.897Z,11.87
2018-04-10T23:02:09.935Z,12.90
2018-04-10T23:04:37.996Z,17.40
2018-04-10T23:07:06.044Z,16.13
2018-04-10T23:09:34.880Z,15.80
2018-04-10T23:12:02.951Z,17.70
2018-04-10T23:14:31.012Z,19.13
2018-04-10T23:16:59.824Z,17.77
2018-04-10T23:19:28.651Z,17.57
2018-04-10T23:21:56.699Z,17.97
2018-04-10T23:24:24.743Z,19.17
2018-04-10T23:26:52.802Z,20.53
2018-04-10T23:29:21.606Z,21.73
2018-04-10T23:31:49.676Z,20.90
2018-04-10T23:34:18.484Z,22.53
2018-04-10T23:36:47.292Z,18.70
2018-04-10T23:39:16.128Z,16.40
2018-04-10T23:41:44.204Z,17.43
2018-04-10T23:44:12.264Z,18.87
2018-04-10T23:46:41.074Z,15.83
2018-04-10T23:49:09.907Z,14.50
2018-04-10T23:51:38.006Z,14.00
2018-04-10T23:54:06.042Z,15.93
2018-04-10T23:56:34.868Z,16.07
2018-04-10T23:59:02.907Z,15.33
